sensor_id;sensor_type;location;lat;lon;timestamp;temperature;humidity
7030;DHT22;3556;53.500;10.176;2023-04-25T00:02:03;7.70;99.90
7030;DHT22;3556;53.500;10.176;2023-04-25T00:04:29;7.70;99.90
7030;DHT22;3556;53.500;10.176;2023-04-25T00:06:55;7.70;99.90
7030;DHT22;3556;53.500;10.176;2023-04-25T00:09:21;7.60;99.90
7030;DHT22;3556;53.500;10.176;2023-04-25T00:11:47;7.60;99.90
7030;DHT22;3556;53.500;10.176;2023-04-25T00:14:14;7.60;99.90
7030;DHT22;3556;53.500;10.176;2023-04-25T00:16:39;7.60;99.90
7030;DHT22;3556;53.500;10.176;2023-04-25T00:19:06;7.60;99.90
7030;DHT22;3556;53.500;10.176;2023-04-25T00:21:32;7.70;99.90
7030;DHT22;3556;53.500;10.176;2023-04-25T00:23:59;7.60;99.90
7030;DHT22;3556;53.500;10.176;2023-04-25T00:26:27;7.70;99.90
7030;DHT22;3556;53.500;10.176;2023-04-25T00:28:52;7.70;99.90
7030;DHT22;3556;53.500;10.176;2023-04-25T00:31:18;7.70;99.90
7030;DHT22;3556;53.500;10.176;2023-04-25T00:33:44;7.70;99.90
7030;DHT22;3556;53.500;10.176;2023-04-25T00:36:09;7.60;99.90
7030;DHT22;3556;53.500;10.176;2023-04-25T00:38:35;7.60;99.90
7030;DHT22;3556;53.500;10.176;2023-04-25T00:41:01;7.60;99.90
7030;DHT22;3556;53.500;10.176;2023-04-25T00:43:28;7.50;99.90
7030;DHT22;3556;53.500;10.176;2023-04-25T00:45:56;7.50;99.90
7030;DHT22;3556;53.500;10.176;2023-04-25T00:48:23;7.50;99.90
7030;DHT22;3556;53.500;10.176;2023-04-25T00:50:58;7.50;99.90
7030;DHT22;3556;53.500;10.176;2023-04-25T00:53:25;7.50;99.90
7030;DHT22;3556;53.500;10.176;2023-04-25T00:55:51;7.40;99.90
7030;DHT22;3556;53.500;10.176;2023-04-25T00:58:18;7.40;99.90
7030;DHT22;3556;53.500;10.176;2023-04-25T01:00:45;7.40;99.90
7030;DHT22;3556;53.500;10.176;2023-04-25T01:03:15;7.40;99.90
7030;DHT22;3556;53.500;10.176;2023-04-25T01:05:42;7.30;99.90
7030;DHT22;3556;53.500;10.176;2023-04-25T01:08:08;7.30;99.90
7030;DHT22;3556;53.500;10.176;2023-04-25T01:10:34;7.30;99.90
7030;DHT22;3556;53.500;10.176;2023-04-25T01:13:00;7.30;99.90
7030;DHT22;3556;53.500;10.176;2023-04-25T01:15:25;7.30;99.90
7030;DHT22;3556;53.500;10.176;2023-04-25T01:17:51;7.30;99.90
7030;DHT22;3556;53.500;10.176;2023-04-25T01:20:21;7.30;99.90
7030;DHT22;3556;53.500;10.176;2023-04-25T01:22:48;7.30;99.90
7030;DHT22;3556;53.500;10.176;2023-04-25T01:25:14;7.30;99.90
7030;DHT22;3556;53.500;10.176;2023-04-25T01:27:40;7.30;99.90
7030;DHT22;3556;53.500;10.176;2023-04-25T01:33:28;7.30;99.90
7030;DHT22;3556;53.500;10.176;2023-04-25T01:35:54;7.30;99.90
7030;DHT22;3556;53.500;10.176;2023-04-25T01:38:20;7.20;99.90
7030;DHT22;3556;53.500;10.176;2023-04-25T01:40:46;7.20;99.90
7030;DHT22;3556;53.500;10.176;2023-04-25T01:43:13;7.20;99.90
7030;DHT22;3556;53.500;10.176;2023-04-25T01:45:40;7.20;99.90
7030;DHT22;3556;53.500;10.176;2023-04-25T01:48:10;7.20;99.90
7030;DHT22;3556;53.500;10.176;2023-04-25T01:50:38;7.10;99.90
7030;DHT22;3556;53.500;10.176;2023-04-25T01:53:04;7.10;99.90
7030;DHT22;3556;53.500;10.176;2023-04-25T01:55:30;7.10;99.90
7030;DHT22;3556;53.500;10.176;2023-04-25T01:57:56;7.10;99.90
7030;DHT22;3556;53.500;10.176;2023-04-25T02:00:22;7.00;99.90
7030;DHT22;3556;53.500;10.176;2023-04-25T02:02:47;7.00;99.90
7030;DHT22;3556;53.500;10.176;2023-04-25T02:05:13;7.00;99.90
7030;DHT22;3556;53.500;10.176;2023-04-25T02:07:39;6.90;99.90
7030;DHT22;3556;53.500;10.176;2023-04-25T02:13:27;6.90;99.90
7030;DHT22;3556;53.500;10.176;2023-04-25T02:15:52;6.90;99.90
7030;DHT22;3556;53.500;10.176;2023-04-25T02:18:18;6.90;99.90
7030;DHT22;3556;53.500;10.176;2023-04-25T02:20:45;6.80;99.90
7030;DHT22;3556;53.500;10.176;2023-04-25T02:23:11;6.80;99.90
7030;DHT22;3556;53.500;10.176;2023-04-25T02:25:36;6.80;99.90
7030;DHT22;3556;53.500;10.176;2023-04-25T02:28:02;6.80;99.90
7030;DHT22;3556;53.500;10.176;2023-04-25T02:30:28;6.80;99.90
7030;DHT22;3556;53.500;10.176;2023-04-25T02:32:53;6.80;99.90
7030;DHT22;3556;53.500;10.176;2023-04-25T02:35:19;6.70;99.90
7030;DHT22;3556;53.500;10.176;2023-04-25T02:37:45;6.70;99.90
7030;DHT22;3556;53.500;10.176;2023-04-25T02:40:11;6.70;99.90
7030;DHT22;3556;53.500;10.176;2023-04-25T02:42:36;6.70;99.90
7030;DHT22;3556;53.500;10.176;2023-04-25T02:45:02;6.60;99.90
7030;DHT22;3556;53.500;10.176;2023-04-25T02:47:28;6.60;99.90
7030;DHT22;3556;53.500;10.176;2023-04-25T02:49:54;6.50;99.90
7030;DHT22;3556;53.500;10.176;2023-04-25T02:52:20;6.50;99.90
7030;DHT22;3556;53.500;10.176;2023-04-25T02:54:46;6.50;99.90
7030;DHT22;3556;53.500;10.176;2023-04-25T02:57:12;6.50;99.90
7030;DHT22;3556;53.500;10.176;2023-04-25T02:59:38;6.40;99.90
7030;DHT22;3556;53.500;10.176;2023-04-25T03:02:03;6.40;99.90
7030;DHT22;3556;53.500;10.176;2023-04-25T03:04:29;6.40;99.90
7030;DHT22;3556;53.500;10.176;2023-04-25T03:06:54;6.50;99.90
7030;DHT22;3556;53.500;10.176;2023-04-25T03:09:20;6.40;99.90
7030;DHT22;3556;53.500;10.176;2023-04-25T03:11:56;6.40;99.90
7030;DHT22;3556;53.500;10.176;2023-04-25T03:15:29;6.40;99.90
7030;DHT22;3556;53.500;10.176;2023-04-25T03:18:55;6.30;99.90
7030;DHT22;3556;53.500;10.176;2023-04-25T03:22:27;6.30;99.90
7030;DHT22;3556;53.500;10.176;2023-04-25T03:25:56;6.20;99.90
7030;DHT22;3556;53.500;10.176;2023-04-25T03:29:28;6.20;99.90
7030;DHT22;3556;53.500;10.176;2023-04-25T03:32:52;6.20;99.90
7030;DHT22;3556;53.500;10.176;2023-04-25T03:36:33;6.20;99.90
7030;DHT22;3556;53.500;10.176;2023-04-25T03:43:22;6.00;99.90
7030;DHT22;3556;53.500;10.176;2023-04-25T03:46:36;5.90;99.90
7030;DHT22;3556;53.500;10.176;2023-04-25T03:49:01;5.90;99.90
7030;DHT22;3556;53.500;10.176;2023-04-25T03:51:27;5.80;99.90
7030;DHT22;3556;53.500;10.176;2023-04-25T03:53:52;5.80;99.90
7030;DHT22;3556;53.500;10.176;2023-04-25T03:56:18;5.70;99.90
7030;DHT22;3556;53.500;10.176;2023-04-25T03:58:44;5.70;99.90
7030;DHT22;3556;53.500;10.176;2023-04-25T04:01:10;5.80;99.90
7030;DHT22;3556;53.500;10.176;2023-04-25T04:03:37;5.80;99.90
7030;DHT22;3556;53.500;10.176;2023-04-25T04:06:03;5.70;99.90
7030;DHT22;3556;53.500;10.176;2023-04-25T04:08:31;5.70;99.90
7030;DHT22;3556;53.500;10.176;2023-04-25T04:11:00;5.70;99.90
7030;DHT22;3556;53.500;10.176;2023-04-25T04:13:29;5.70;99.90
7030;DHT22;3556;53.500;10.176;2023-04-25T04:15:55;5.70;99.90
7030;DHT22;3556;53.500;10.176;2023-04-25T04:18:21;5.60;99.90
7030;DHT22;3556;53.500;10.176;2023-04-25T04:20:47;5.70;99.90
7030;DHT22;3556;53.500;10.176;2023-04-25T04:23:12;5.60;99.90
7030;DHT22;3556;53.500;10.176;2023-04-25T04:25:38;5.60;99.90
7030;DHT22;3556;53.500;10.176;2023-04-25T04:28:05;5.60;99.90
7030;DHT22;3556;53.500;10.176;2023-04-25T04:30:31;5.60;99.90
7030;DHT22;3556;53.500;10.176;2023-04-25T04:32:59;5.50;99.90
7030;DHT22;3556;53.500;10.176;2023-04-25T04:35:26;5.50;99.90
7030;DHT22;3556;53.500;10.176;2023-04-25T04:37:52;5.40;99.90
7030;DHT22;3556;53.500;10.176;2023-04-25T04:40:18;5.40;99.90
7030;DHT22;3556;53.500;10.176;2023-04-25T04:42:44;5.40;99.90
7030;DHT22;3556;53.500;10.176;2023-04-25T04:45:13;5.40;99.90
7030;DHT22;3556;53.500;10.176;2023-04-25T04:47:39;5.30;99.90
7030;DHT22;3556;53.500;10.176;2023-04-25T04:50:09;5.30;99.90
7030;DHT22;3556;53.500;10.176;2023-04-25T04:52:36;5.30;99.90
7030;DHT22;3556;53.500;10.176;2023-04-25T04:55:03;5.30;99.90
7030;DHT22;3556;53.500;10.176;2023-04-25T04:57:29;5.30;99.90
7030;DHT22;3556;53.500;10.176;2023-04-25T04:59:56;5.30;99.90
7030;DHT22;3556;53.500;10.176;2023-04-25T05:02:22;5.30;99.90
7030;DHT22;3556;53.500;10.176;2023-04-25T05:04:47;5.40;99.90
7030;DHT22;3556;53.500;10.176;2023-04-25T05:07:13;5.40;99.90
7030;DHT22;3556;53.500;10.176;2023-04-25T05:09:39;5.50;99.90
7030;DHT22;3556;53.500;10.176;2023-04-25T05:12:04;5.50;99.90
7030;DHT22;3556;53.500;10.176;2023-04-25T05:14:30;5.60;99.90
7030;DHT22;3556;53.500;10.176;2023-04-25T05:16:56;5.60;99.90
7030;DHT22;3556;53.500;10.176;2023-04-25T05:19:22;5.70;99.90
7030;DHT22;3556;53.500;10.176;2023-04-25T05:21:49;5.80;99.90
7030;DHT22;3556;53.500;10.176;2023-04-25T05:24:14;5.90;99.90
7030;DHT22;3556;53.500;10.176;2023-04-25T05:26:40;5.90;99.90
7030;DHT22;3556;53.500;10.176;2023-04-25T05:29:06;5.90;99.90
7030;DHT22;3556;53.500;10.176;2023-04-25T05:31:32;6.00;99.90
7030;DHT22;3556;53.500;10.176;2023-04-25T05:33:58;5.90;99.90
7030;DHT22;3556;53.500;10.176;2023-04-25T05:36:23;5.90;99.90
7030;DHT22;3556;53.500;10.176;2023-04-25T05:38:49;5.90;99.90
7030;DHT22;3556;53.500;10.176;2023-04-25T05:41:15;5.90;99.90
7030;DHT22;3556;53.500;10.176;2023-04-25T05:43:40;5.90;99.90
7030;DHT22;3556;53.500;10.176;2023-04-25T05:46:10;5.80;99.90
7030;DHT22;3556;53.500;10.176;2023-04-25T05:48:37;5.80;99.90
7030;DHT22;3556;53.500;10.176;2023-04-25T05:51:02;5.80;99.90
7030;DHT22;3556;53.500;10.176;2023-04-25T05:53:28;5.80;99.90
7030;DHT22;3556;53.500;10.176;2023-04-25T05:55:54;5.80;99.90
7030;DHT22;3556;53.500;10.176;2023-04-25T05:58:19;5.90;99.90
7030;DHT22;3556;53.500;10.176;2023-04-25T06:00:45;5.90;99.90
7030;DHT22;3556;53.500;10.176;2023-04-25T06:03:12;5.90;99.90
7030;DHT22;3556;53.500;10.176;2023-04-25T06:05:41;6.00;99.90
7030;DHT22;3556;53.500;10.176;2023-04-25T06:08:06;6.00;99.90
7030;DHT22;3556;53.500;10.176;2023-04-25T06:10:32;6.10;99.90
7030;DHT22;3556;53.500;10.176;2023-04-25T06:12:58;6.20;99.90
7030;DHT22;3556;53.500;10.176;2023-04-25T06:15:23;6.20;99.90
7030;DHT22;3556;53.500;10.176;2023-04-25T06:17:49;6.30;99.90
7030;DHT22;3556;53.500;10.176;2023-04-25T06:20:15;6.30;99.90
7030;DHT22;3556;53.500;10.176;2023-04-25T06:22:40;6.40;99.90
7030;DHT22;3556;53.500;10.176;2023-04-25T06:25:06;6.40;99.90
7030;DHT22;3556;53.500;10.176;2023-04-25T06:27:33;6.40;99.90
7030;DHT22;3556;53.500;10.176;2023-04-25T06:29:59;6.40;99.90
7030;DHT22;3556;53.500;10.176;2023-04-25T06:32:24;6.50;99.90
7030;DHT22;3556;53.500;10.176;2023-04-25T06:34:51;6.60;99.90
7030;DHT22;3556;53.500;10.176;2023-04-25T06:37:17;6.60;99.90
7030;DHT22;3556;53.500;10.176;2023-04-25T06:39:42;6.70;99.90
7030;DHT22;3556;53.500;10.176;2023-04-25T06:42:08;6.70;99.90
7030;DHT22;3556;53.500;10.176;2023-04-25T06:44:34;6.70;99.90
7030;DHT22;3556;53.500;10.176;2023-04-25T06:46:59;6.70;99.90
7030;DHT22;3556;53.500;10.176;2023-04-25T06:49:25;6.70;99.90
7030;DHT22;3556;53.500;10.176;2023-04-25T06:51:51;6.80;99.90
7030;DHT22;3556;53.500;10.176;2023-04-25T06:54:16;6.70;99.90
7030;DHT22;3556;53.500;10.176;2023-04-25T06:56:42;6.70;99.90
7030;DHT22;3556;53.500;10.176;2023-04-25T06:59:08;6.70;99.90
7030;DHT22;3556;53.500;10.176;2023-04-25T07:01:34;6.70;99.90
7030;DHT22;3556;53.500;10.176;2023-04-25T07:04:00;6.80;99.90
7030;DHT22;3556;53.500;10.176;2023-04-25T07:06:26;6.90;99.90
7030;DHT22;3556;53.500;10.176;2023-04-25T07:08:53;7.00;99.90
7030;DHT22;3556;53.500;10.176;2023-04-25T07:11:19;7.10;99.90
7030;DHT22;3556;53.500;10.176;2023-04-25T07:13:44;7.20;99.90
7030;DHT22;3556;53.500;10.176;2023-04-25T07:16:10;7.30;99.90
7030;DHT22;3556;53.500;10.176;2023-04-25T07:18:36;7.30;99.90
7030;DHT22;3556;53.500;10.176;2023-04-25T07:21:01;7.30;99.90
7030;DHT22;3556;53.500;10.176;2023-04-25T07:23:27;7.40;99.90
7030;DHT22;3556;53.500;10.176;2023-04-25T07:25:53;7.50;99.90
7030;DHT22;3556;53.500;10.176;2023-04-25T07:28:18;7.50;99.90
7030;DHT22;3556;53.500;10.176;2023-04-25T07:30:44;7.50;99.90
7030;DHT22;3556;53.500;10.176;2023-04-25T07:33:10;7.60;99.90
7030;DHT22;3556;53.500;10.176;2023-04-25T07:35:36;7.60;99.90
7030;DHT22;3556;53.500;10.176;2023-04-25T07:38:02;7.70;99.90
7030;DHT22;3556;53.500;10.176;2023-04-25T07:40:28;7.70;99.90
7030;DHT22;3556;53.500;10.176;2023-04-25T07:42:54;7.80;99.90
7030;DHT22;3556;53.500;10.176;2023-04-25T07:45:19;7.70;99.90
7030;DHT22;3556;53.500;10.176;2023-04-25T07:47:45;7.60;99.90
7030;DHT22;3556;53.500;10.176;2023-04-25T07:50:11;7.50;99.90
7030;DHT22;3556;53.500;10.176;2023-04-25T07:52:37;7.50;99.90
7030;DHT22;3556;53.500;10.176;2023-04-25T07:55:02;7.50;99.90
7030;DHT22;3556;53.500;10.176;2023-04-25T07:57:29;7.50;99.90
7030;DHT22;3556;53.500;10.176;2023-04-25T07:59:55;7.50;99.90
7030;DHT22;3556;53.500;10.176;2023-04-25T08:02:20;7.50;99.90
7030;DHT22;3556;53.500;10.176;2023-04-25T08:04:46;7.60;99.90
7030;DHT22;3556;53.500;10.176;2023-04-25T08:07:12;7.80;99.90
7030;DHT22;3556;53.500;10.176;2023-04-25T08:09:37;7.90;99.90
7030;DHT22;3556;53.500;10.176;2023-04-25T08:12:03;8.10;99.90
7030;DHT22;3556;53.500;10.176;2023-04-25T08:14:30;8.30;99.90
7030;DHT22;3556;53.500;10.176;2023-04-25T08:17:01;8.40;99.90
7030;DHT22;3556;53.500;10.176;2023-04-25T08:19:27;8.60;99.90
7030;DHT22;3556;53.500;10.176;2023-04-25T08:21:52;8.60;99.90
7030;DHT22;3556;53.500;10.176;2023-04-25T08:24:18;8.60;99.90
7030;DHT22;3556;53.500;10.176;2023-04-25T08:26:44;8.70;99.90
7030;DHT22;3556;53.500;10.176;2023-04-25T08:29:09;8.80;99.90
7030;DHT22;3556;53.500;10.176;2023-04-25T08:31:35;8.80;99.90
7030;DHT22;3556;53.500;10.176;2023-04-25T08:34:00;8.80;99.90
7030;DHT22;3556;53.500;10.176;2023-04-25T08:36:26;8.80;99.90
7030;DHT22;3556;53.500;10.176;2023-04-25T08:38:53;8.80;99.90
7030;DHT22;3556;53.500;10.176;2023-04-25T08:41:19;8.80;99.90
7030;DHT22;3556;53.500;10.176;2023-04-25T08:43:48;8.80;99.90
7030;DHT22;3556;53.500;10.176;2023-04-25T08:46:17;8.80;99.90
7030;DHT22;3556;53.500;10.176;2023-04-25T08:48:45;8.70;99.90
7030;DHT22;3556;53.500;10.176;2023-04-25T08:51:20;8.70;99.90
7030;DHT22;3556;53.500;10.176;2023-04-25T08:53:49;8.70;99.90
7030;DHT22;3556;53.500;10.176;2023-04-25T08:56:16;8.60;99.90
7030;DHT22;3556;53.500;10.176;2023-04-25T08:58:43;8.60;99.90
7030;DHT22;3556;53.500;10.176;2023-04-25T09:01:11;8.40;99.90
7030;DHT22;3556;53.500;10.176;2023-04-25T09:03:37;8.50;99.90
7030;DHT22;3556;53.500;10.176;2023-04-25T09:06:03;8.60;99.90
7030;DHT22;3556;53.500;10.176;2023-04-25T09:08:30;8.60;99.90
7030;DHT22;3556;53.500;10.176;2023-04-25T09:10:55;8.60;99.90
7030;DHT22;3556;53.500;10.176;2023-04-25T09:13:26;8.60;99.90
7030;DHT22;3556;53.500;10.176;2023-04-25T09:15:57;8.70;99.90
7030;DHT22;3556;53.500;10.176;2023-04-25T09:18:27;8.70;99.90
7030;DHT22;3556;53.500;10.176;2023-04-25T09:20:55;8.70;99.90
7030;DHT22;3556;53.500;10.176;2023-04-25T09:23:22;8.50;99.90
7030;DHT22;3556;53.500;10.176;2023-04-25T09:25:52;8.40;99.90
7030;DHT22;3556;53.500;10.176;2023-04-25T09:28:25;8.30;99.90
7030;DHT22;3556;53.500;10.176;2023-04-25T09:30:55;8.20;99.90
7030;DHT22;3556;53.500;10.176;2023-04-25T09:33:32;8.10;99.90
7030;DHT22;3556;53.500;10.176;2023-04-25T09:36:09;8.20;99.90
7030;DHT22;3556;53.500;10.176;2023-04-25T09:38:55;8.20;99.90
7030;DHT22;3556;53.500;10.176;2023-04-25T09:41:24;8.10;99.90
7030;DHT22;3556;53.500;10.176;2023-04-25T09:43:50;8.10;99.90
7030;DHT22;3556;53.500;10.176;2023-04-25T09:46:16;8.10;99.90
7030;DHT22;3556;53.500;10.176;2023-04-25T09:48:53;8.40;99.90
7030;DHT22;3556;53.500;10.176;2023-04-25T09:51:19;8.60;99.90
7030;DHT22;3556;53.500;10.176;2023-04-25T09:53:46;8.90;99.90
7030;DHT22;3556;53.500;10.176;2023-04-25T09:56:15;9.30;99.90
7030;DHT22;3556;53.500;10.176;2023-04-25T09:58:41;9.70;99.90
7030;DHT22;3556;53.500;10.176;2023-04-25T10:01:11;9.60;99.90
7030;DHT22;3556;53.500;10.176;2023-04-25T10:03:38;9.30;99.90
7030;DHT22;3556;53.500;10.176;2023-04-25T10:06:17;9.00;99.90
7030;DHT22;3556;53.500;10.176;2023-04-25T10:08:44;8.70;99.90
7030;DHT22;3556;53.500;10.176;2023-04-25T10:11:11;8.80;99.90
7030;DHT22;3556;53.500;10.176;2023-04-25T10:13:40;8.80;99.90
7030;DHT22;3556;53.500;10.176;2023-04-25T10:16:07;9.00;99.90
7030;DHT22;3556;53.500;10.176;2023-04-25T10:18:33;9.10;99.90
7030;DHT22;3556;53.500;10.176;2023-04-25T10:21:01;9.10;99.90
7030;DHT22;3556;53.500;10.176;2023-04-25T10:23:27;9.30;99.90
7030;DHT22;3556;53.500;10.176;2023-04-25T10:25:54;9.40;99.90
7030;DHT22;3556;53.500;10.176;2023-04-25T10:28:21;9.70;99.90
7030;DHT22;3556;53.500;10.176;2023-04-25T10:31:00;9.90;99.90
7030;DHT22;3556;53.500;10.176;2023-04-25T10:33:34;10.30;99.90
7030;DHT22;3556;53.500;10.176;2023-04-25T10:36:14;10.50;99.90
7030;DHT22;3556;53.500;10.176;2023-04-25T10:38:42;10.90;99.90
7030;DHT22;3556;53.500;10.176;2023-04-25T10:41:09;11.10;99.90
7030;DHT22;3556;53.500;10.176;2023-04-25T10:43:43;11.00;98.40
7030;DHT22;3556;53.500;10.176;2023-04-25T10:46:22;11.10;99.10
7030;DHT22;3556;53.500;10.176;2023-04-25T10:48:56;11.30;97.50
7030;DHT22;3556;53.500;10.176;2023-04-25T10:51:24;11.40;95.80
7030;DHT22;3556;53.500;10.176;2023-04-25T10:54:06;11.30;95.90
7030;DHT22;3556;53.500;10.176;2023-04-25T10:56:33;11.20;96.70
7030;DHT22;3556;53.500;10.176;2023-04-25T10:59:18;10.90;97.80
7030;DHT22;3556;53.500;10.176;2023-04-25T11:01:49;10.70;99.90
7030;DHT22;3556;53.500;10.176;2023-04-25T11:07:10;10.60;99.90
7030;DHT22;3556;53.500;10.176;2023-04-25T11:09:39;10.50;99.90
7030;DHT22;3556;53.500;10.176;2023-04-25T11:12:08;10.50;99.90
7030;DHT22;3556;53.500;10.176;2023-04-25T11:14:35;10.60;99.90
7030;DHT22;3556;53.500;10.176;2023-04-25T11:17:01;10.60;99.90
7030;DHT22;3556;53.500;10.176;2023-04-25T11:19:28;10.80;99.90
7030;DHT22;3556;53.500;10.176;2023-04-25T11:22:01;10.70;99.90
7030;DHT22;3556;53.500;10.176;2023-04-25T11:24:34;10.50;99.90
7030;DHT22;3556;53.500;10.176;2023-04-25T11:27:01;10.60;99.90
7030;DHT22;3556;53.500;10.176;2023-04-25T11:29:30;10.80;99.90
7030;DHT22;3556;53.500;10.176;2023-04-25T11:31:56;10.90;99.90
7030;DHT22;3556;53.500;10.176;2023-04-25T11:34:26;11.10;99.90
7030;DHT22;3556;53.500;10.176;2023-04-25T11:36:52;11.30;99.90
7030;DHT22;3556;53.500;10.176;2023-04-25T11:39:22;11.60;99.90
7030;DHT22;3556;53.500;10.176;2023-04-25T11:41:48;11.80;98.80
7030;DHT22;3556;53.500;10.176;2023-04-25T11:44:19;12.20;99.90
7030;DHT22;3556;53.500;10.176;2023-04-25T11:46:46;12.50;99.40
7030;DHT22;3556;53.500;10.176;2023-04-25T11:49:12;12.50;95.90
7030;DHT22;3556;53.500;10.176;2023-04-25T11:51:46;12.10;95.80
7030;DHT22;3556;53.500;10.176;2023-04-25T11:54:13;11.50;98.50
7030;DHT22;3556;53.500;10.176;2023-04-25T11:56:45;10.40;99.90
7030;DHT22;3556;53.500;10.176;2023-04-25T11:59:12;9.70;99.90
7030;DHT22;3556;53.500;10.176;2023-04-25T12:01:39;9.20;99.90
7030;DHT22;3556;53.500;10.176;2023-04-25T12:04:18;9.00;99.90
7030;DHT22;3556;53.500;10.176;2023-04-25T12:06:46;8.80;99.90
7030;DHT22;3556;53.500;10.176;2023-04-25T12:09:14;8.90;99.90
7030;DHT22;3556;53.500;10.176;2023-04-25T12:11:49;9.10;99.90
7030;DHT22;3556;53.500;10.176;2023-04-25T12:14:23;9.30;99.90
7030;DHT22;3556;53.500;10.176;2023-04-25T12:16:54;9.60;99.90
7030;DHT22;3556;53.500;10.176;2023-04-25T12:19:20;9.80;99.90
7030;DHT22;3556;53.500;10.176;2023-04-25T12:21:47;10.00;99.90
7030;DHT22;3556;53.500;10.176;2023-04-25T12:24:17;10.50;99.90
7030;DHT22;3556;53.500;10.176;2023-04-25T12:26:59;11.00;99.90
7030;DHT22;3556;53.500;10.176;2023-04-25T12:29:26;11.50;99.90
7030;DHT22;3556;53.500;10.176;2023-04-25T12:31:53;11.80;99.90
7030;DHT22;3556;53.500;10.176;2023-04-25T12:34:20;12.00;98.50
7030;DHT22;3556;53.500;10.176;2023-04-25T12:36:47;12.50;99.60
7030;DHT22;3556;53.500;10.176;2023-04-25T12:39:17;12.70;96.60
7030;DHT22;3556;53.500;10.176;2023-04-25T12:41:43;12.50;95.90
7030;DHT22;3556;53.500;10.176;2023-04-25T12:44:09;12.40;95.40
7030;DHT22;3556;53.500;10.176;2023-04-25T12:46:35;12.20;95.00
7030;DHT22;3556;53.500;10.176;2023-04-25T12:49:01;12.00;93.50
7030;DHT22;3556;53.500;10.176;2023-04-25T12:51:28;11.80;93.80
7030;DHT22;3556;53.500;10.176;2023-04-25T12:53:54;11.70;93.20
7030;DHT22;3556;53.500;10.176;2023-04-25T12:56:20;11.70;93.30
7030;DHT22;3556;53.500;10.176;2023-04-25T12:58:46;11.80;94.60
7030;DHT22;3556;53.500;10.176;2023-04-25T13:01:12;12.50;95.10
7030;DHT22;3556;53.500;10.176;2023-04-25T13:03:39;13.10;93.30
7030;DHT22;3556;53.500;10.176;2023-04-25T13:06:05;13.70;92.50
7030;DHT22;3556;53.500;10.176;2023-04-25T13:08:31;13.90;88.90
7030;DHT22;3556;53.500;10.176;2023-04-25T13:10:56;13.50;89.10
7030;DHT22;3556;53.500;10.176;2023-04-25T13:13:22;12.80;90.30
7030;DHT22;3556;53.500;10.176;2023-04-25T13:15:47;12.40;91.90
7030;DHT22;3556;53.500;10.176;2023-04-25T13:18:13;11.70;93.20
7030;DHT22;3556;53.500;10.176;2023-04-25T13:20:38;11.20;93.90
7030;DHT22;3556;53.500;10.176;2023-04-25T13:23:04;10.70;95.40
7030;DHT22;3556;53.500;10.176;2023-04-25T13:25:30;11.00;96.60
7030;DHT22;3556;53.500;10.176;2023-04-25T13:27:55;11.10;94.80
7030;DHT22;3556;53.500;10.176;2023-04-25T13:30:21;11.10;94.40
7030;DHT22;3556;53.500;10.176;2023-04-25T13:32:47;10.90;92.80
7030;DHT22;3556;53.500;10.176;2023-04-25T13:35:13;10.70;93.40
7030;DHT22;3556;53.500;10.176;2023-04-25T13:37:41;10.10;95.70
7030;DHT22;3556;53.500;10.176;2023-04-25T13:40:10;9.40;98.40
7030;DHT22;3556;53.500;10.176;2023-04-25T13:42:37;8.90;99.90
7030;DHT22;3556;53.500;10.176;2023-04-25T13:45:03;8.60;99.90
7030;DHT22;3556;53.500;10.176;2023-04-25T13:47:29;8.60;99.90
7030;DHT22;3556;53.500;10.176;2023-04-25T13:49:55;8.60;99.90
7030;DHT22;3556;53.500;10.176;2023-04-25T13:52:21;8.70;99.90
7030;DHT22;3556;53.500;10.176;2023-04-25T13:54:46;8.90;99.90
7030;DHT22;3556;53.500;10.176;2023-04-25T13:57:13;9.60;99.90
7030;DHT22;3556;53.500;10.176;2023-04-25T13:59:39;10.30;99.90
7030;DHT22;3556;53.500;10.176;2023-04-25T14:02:04;11.00;99.90
7030;DHT22;3556;53.500;10.176;2023-04-25T14:04:30;11.50;99.60
7030;DHT22;3556;53.500;10.176;2023-04-25T14:06:56;11.50;98.80
7030;DHT22;3556;53.500;10.176;2023-04-25T14:09:22;10.80;99.90
7030;DHT22;3556;53.500;10.176;2023-04-25T14:11:51;9.70;99.90
7030;DHT22;3556;53.500;10.176;2023-04-25T14:14:18;9.00;99.90
7030;DHT22;3556;53.500;10.176;2023-04-25T14:16:44;8.40;99.90
7030;DHT22;3556;53.500;10.176;2023-04-25T14:19:09;8.20;99.90
7030;DHT22;3556;53.500;10.176;2023-04-25T14:21:35;8.10;99.90
7030;DHT22;3556;53.500;10.176;2023-04-25T14:24:01;8.00;99.90
7030;DHT22;3556;53.500;10.176;2023-04-25T14:26:26;8.00;99.90
7030;DHT22;3556;53.500;10.176;2023-04-25T14:28:52;8.10;99.90
7030;DHT22;3556;53.500;10.176;2023-04-25T14:31:18;8.20;99.90
7030;DHT22;3556;53.500;10.176;2023-04-25T14:33:43;8.70;99.90
7030;DHT22;3556;53.500;10.176;2023-04-25T14:36:09;9.50;99.90
7030;DHT22;3556;53.500;10.176;2023-04-25T14:38:36;10.00;99.90
7030;DHT22;3556;53.500;10.176;2023-04-25T14:41:02;10.70;99.90
7030;DHT22;3556;53.500;10.176;2023-04-25T14:43:27;11.40;99.90
7030;DHT22;3556;53.500;10.176;2023-04-25T14:45:53;11.80;99.90
7030;DHT22;3556;53.500;10.176;2023-04-25T14:48:19;12.00;98.50
7030;DHT22;3556;53.500;10.176;2023-04-25T14:50:45;12.10;98.00
7030;DHT22;3556;53.500;10.176;2023-04-25T14:53:11;12.40;98.70
7030;DHT22;3556;53.500;10.176;2023-04-25T14:55:37;11.90;97.50
7030;DHT22;3556;53.500;10.176;2023-04-25T14:58:03;11.50;97.10
7030;DHT22;3556;53.500;10.176;2023-04-25T15:00:28;11.30;98.10
7030;DHT22;3556;53.500;10.176;2023-04-25T15:02:56;11.50;99.30
7030;DHT22;3556;53.500;10.176;2023-04-25T15:05:22;11.80;96.50
7030;DHT22;3556;53.500;10.176;2023-04-25T15:07:47;12.10;97.60
7030;DHT22;3556;53.500;10.176;2023-04-25T15:10:13;12.60;96.60
7030;DHT22;3556;53.500;10.176;2023-04-25T15:12:41;12.50;95.20
7030;DHT22;3556;53.500;10.176;2023-04-25T15:15:08;12.80;95.10
7030;DHT22;3556;53.500;10.176;2023-04-25T15:17:43;13.00;94.60
7030;DHT22;3556;53.500;10.176;2023-04-25T15:20:11;13.10;94.50
7030;DHT22;3556;53.500;10.176;2023-04-25T15:22:39;12.90;93.40
7030;DHT22;3556;53.500;10.176;2023-04-25T15:25:06;12.20;92.50
7030;DHT22;3556;53.500;10.176;2023-04-25T15:27:33;11.40;92.80
7030;DHT22;3556;53.500;10.176;2023-04-25T15:30:04;10.90;94.30
7030;DHT22;3556;53.500;10.176;2023-04-25T15:32:31;10.50;96.70
7030;DHT22;3556;53.500;10.176;2023-04-25T15:34:56;10.00;97.60
7030;DHT22;3556;53.500;10.176;2023-04-25T15:37:22;9.70;98.20
7030;DHT22;3556;53.500;10.176;2023-04-25T15:39:47;9.60;99.60
7030;DHT22;3556;53.500;10.176;2023-04-25T15:42:13;9.90;99.90
7030;DHT22;3556;53.500;10.176;2023-04-25T15:44:39;10.30;99.50
7030;DHT22;3556;53.500;10.176;2023-04-25T15:47:04;10.50;97.30
7030;DHT22;3556;53.500;10.176;2023-04-25T15:49:30;10.60;97.10
7030;DHT22;3556;53.500;10.176;2023-04-25T15:51:55;10.80;97.10
7030;DHT22;3556;53.500;10.176;2023-04-25T15:54:21;10.90;97.90
7030;DHT22;3556;53.500;10.176;2023-04-25T15:56:47;10.80;96.50
7030;DHT22;3556;53.500;10.176;2023-04-25T15:59:13;10.70;96.60
7030;DHT22;3556;53.500;10.176;2023-04-25T16:01:38;10.70;97.50
7030;DHT22;3556;53.500;10.176;2023-04-25T16:04:04;10.60;96.90
7030;DHT22;3556;53.500;10.176;2023-04-25T16:06:30;10.50;97.60
7030;DHT22;3556;53.500;10.176;2023-04-25T16:08:56;10.50;98.20
7030;DHT22;3556;53.500;10.176;2023-04-25T16:11:22;10.40;98.20
7030;DHT22;3556;53.500;10.176;2023-04-25T16:13:48;10.40;98.50
7030;DHT22;3556;53.500;10.176;2023-04-25T16:16:14;10.30;98.70
7030;DHT22;3556;53.500;10.176;2023-04-25T16:18:40;10.10;95.50